Time;durP1;ratioP1;P1;durP2;ratioP2;P2;SDS_P1;SDS_P2;PMS_P1;PMS_P2;Temp;Humidity;BMP_temperature;BMP_pressure;BME280_temperature;BME280_humidity;BME280_pressure;Samples;Min_cycle;Max_cycle;Signal;HPM_P1;HPM_P2
2022/03/20 00:00:56;;;;;;;27.63;19.95;;;;;;;;;;4986170;28;20039;-77
2022/03/20 00:03:24;;;;;;;26.90;20.88;;;;;;;;;;4973705;28;20062;-76
2022/03/20 00:05:53;;;;;;;27.63;18.80;;;;;;;;;;4981949;28;20050;-76
2022/03/20 00:08:20;;;;;;;30.33;21.40;;;;;;;;;;4982961;28;20141;-77
2022/03/20 00:10:49;;;;;;;27.08;20.50;;;;;;;;;;4991129;28;20399;-76
2022/03/20 00:13:18;;;;;;;29.25;21.17;;;;;;;;;;4972351;28;20785;-76
2022/03/20 00:15:47;;;;;;;31.45;23.02;;;;;;;;;;4973256;28;20069;-76
2022/03/20 00:18:15;;;;;;;27.65;19.52;;;;;;;;;;4987733;28;20133;-80
2022/03/20 00:20:47;;;;;;;34.88;24.77;;;;;;;;;;4977145;28;20042;-76
2022/03/20 00:23:16;;;;;;;32.40;21.55;;;;;;;;;;4986781;28;20054;-80
2022/03/20 00:25:44;;;;;;;31.95;21.45;;;;;;;;;;4979007;28;20406;-76
2022/03/20 00:28:13;;;;;;;32.78;24.65;;;;;;;;;;4986522;28;20070;-78
2022/03/20 00:30:40;;;;;;;28.73;21.40;;;;;;;;;;4976094;28;20129;-78
2022/03/20 00:33:08;;;;;;;33.72;21.98;;;;;;;;;;4969440;28;20495;-77
2022/03/20 00:35:36;;;;;;;26.17;19.65;;;;;;;;;;4977037;28;20490;-78
2022/03/20 00:38:05;;;;;;;30.02;21.75;;;;;;;;;;4976334;28;20045;-77
2022/03/20 00:40:32;;;;;;;27.48;20.42;;;;;;;;;;4972051;28;20088;-76
2022/03/20 00:43:00;;;;;;;28.25;20.92;;;;;;;;;;4973098;28;20038;-77
2022/03/20 00:45:30;;;;;;;25.50;19.33;;;;;;;;;;4970001;28;20049;-77
2022/03/20 00:47:58;;;;;;;28.50;18.83;;;;;;;;;;4976072;28;20070;-77
2022/03/20 00:50:25;;;;;;;27.95;19.50;;;;;;;;;;4970919;28;20049;-78
2022/03/20 00:52:53;;;;;;;25.38;17.15;;;;;;;;;;4975592;28;20050;-77
2022/03/20 00:55:20;;;;;;;27.17;19.30;;;;;;;;;;4970519;28;20499;-77
2022/03/20 00:57:48;;;;;;;27.33;18.42;;;;;;;;;;5002221;28;20035;-77
2022/03/20 01:00:16;;;;;;;26.33;19.95;;;;;;;;;;4956647;28;20507;-77
2022/03/20 01:02:44;;;;;;;24.98;19.15;;;;;;;;;;4975480;28;20042;-78
2022/03/20 01:05:12;;;;;;;26.23;20.30;;;;;;;;;;4986277;28;20040;-78
2022/03/20 01:07:40;;;;;;;29.98;20.75;;;;;;;;;;4995258;28;20491;-76
2022/03/20 01:10:08;;;;;;;26.30;20.50;;;;;;;;;;4975092;28;20093;-78
2022/03/20 01:12:38;;;;;;;27.45;21.45;;;;;;;;;;4975414;28;20043;-77
2022/03/20 01:15:06;;;;;;;27.05;19.65;;;;;;;;;;4972948;28;20181;-77
2022/03/20 01:17:34;;;;;;;24.17;18.80;;;;;;;;;;4985799;28;20121;-78
2022/03/20 01:20:02;;;;;;;25.08;18.73;;;;;;;;;;4976304;28;20081;-78
2022/03/20 01:22:30;;;;;;;27.58;19.10;;;;;;;;;;4970210;28;20077;-78
2022/03/20 01:24:57;;;;;;;27.42;20.52;;;;;;;;;;4986826;28;20564;-80
2022/03/20 01:27:25;;;;;;;29.15;19.70;;;;;;;;;;4983946;28;20093;-77
2022/03/20 01:29:52;;;;;;;25.80;18.50;;;;;;;;;;4986622;28;20129;-77
2022/03/20 01:32:19;;;;;;;25.58;19.52;;;;;;;;;;4986846;28;20164;-77
2022/03/20 01:34:47;;;;;;;27.90;19.30;;;;;;;;;;4980017;28;20113;-79
2022/03/20 01:37:14;;;;;;;27.42;19.05;;;;;;;;;;4990718;28;20038;-79
2022/03/20 01:39:41;;;;;;;24.52;19.20;;;;;;;;;;4988399;28;20110;-78
2022/03/20 01:42:09;;;;;;;26.08;19.73;;;;;;;;;;4969308;28;20403;-77
2022/03/20 01:44:37;;;;;;;26.23;17.90;;;;;;;;;;4971755;28;20389;-76
2022/03/20 01:47:06;;;;;;;24.58;18.67;;;;;;;;;;4980810;28;20042;-77
2022/03/20 01:49:33;;;;;;;26.58;20.65;;;;;;;;;;4987598;28;20113;-77
2022/03/20 01:52:11;;;;;;;25.40;18.15;;;;;;;;;;4974592;28;20053;-78
2022/03/20 01:54:44;;;;;;;25.38;17.40;;;;;;;;;;4970343;28;20113;-77
2022/03/20 01:57:20;;;;;;;26.27;17.92;;;;;;;;;;5005654;28;20038;-77
2022/03/20 01:59:48;;;;;;;24.73;17.88;;;;;;;;;;4984360;28;20058;-78
2022/03/20 02:02:16;;;;;;;26.25;17.95;;;;;;;;;;5002793;28;20052;-78
2022/03/20 02:04:43;;;;;;;24.65;18.55;;;;;;;;;;4986538;28;20560;-77
2022/03/20 02:07:11;;;;;;;24.90;17.92;;;;;;;;;;4984816;28;20052;-77
2022/03/20 02:09:40;;;;;;;23.50;17.33;;;;;;;;;;4971870;28;20043;-79
2022/03/20 02:12:10;;;;;;;26.55;18.38;;;;;;;;;;4989751;28;20390;-77
2022/03/20 02:14:37;;;;;;;23.25;17.15;;;;;;;;;;5006418;28;20616;-78
2022/03/20 02:17:05;;;;;;;22.33;16.70;;;;;;;;;;4992627;28;20042;-78
2022/03/20 02:19:34;;;;;;;19.90;15.90;;;;;;;;;;4989825;28;20039;-77
2022/03/20 02:22:02;;;;;;;24.00;17.75;;;;;;;;;;4990049;28;20047;-77
2022/03/20 02:24:34;;;;;;;23.55;17.77;;;;;;;;;;4979992;28;20471;-77
2022/03/20 02:27:12;;;;;;;21.02;15.93;;;;;;;;;;4986237;28;20585;-78
2022/03/20 02:29:40;;;;;;;20.80;15.85;;;;;;;;;;4973176;28;20165;-77
2022/03/20 02:32:09;;;;;;;21.95;16.25;;;;;;;;;;4984079;28;20046;-77
2022/03/20 02:34:37;;;;;;;21.45;15.45;;;;;;;;;;4981362;28;20535;-77
2022/03/20 02:37:05;;;;;;;22.90;16.35;;;;;;;;;;4974345;28;20042;-77
2022/03/20 02:39:33;;;;;;;22.13;16.00;;;;;;;;;;4988451;28;20368;-77
2022/03/20 02:42:01;;;;;;;21.20;15.82;;;;;;;;;;4989051;28;20130;-78
2022/03/20 02:44:47;;;;;;;21.58;15.88;;;;;;;;;;4980932;28;20046;-79
2022/03/20 02:47:14;;;;;;;21.05;15.68;;;;;;;;;;4974037;28;20398;-78
2022/03/20 02:49:43;;;;;;;21.17;15.18;;;;;;;;;;4970142;28;20082;-77
2022/03/20 02:52:11;;;;;;;23.83;16.05;;;;;;;;;;4954430;28;20080;-76
2022/03/20 02:54:38;;;;;;;22.20;15.90;;;;;;;;;;4971545;28;20051;-76
2022/03/20 02:57:08;;;;;;;22.55;17.08;;;;;;;;;;4980246;28;20593;-76
2022/03/20 02:59:35;;;;;;;22.13;16.38;;;;;;;;;;4988406;28;20357;-76
2022/03/20 03:02:02;;;;;;;23.10;18.83;;;;;;;;;;4975617;28;20094;-78
2022/03/20 03:04:31;;;;;;;21.00;16.30;;;;;;;;;;4986931;28;20263;-76
2022/03/20 03:07:02;;;;;;;21.45;15.65;;;;;;;;;;4972860;28;20058;-76
2022/03/20 03:12:15;;;;;;;21.63;16.52;;;;;;;;;;4988796;28;20046;-76
2022/03/20 03:17:31;;;;;;;22.48;17.00;;;;;;;;;;4980937;28;20050;-77
2022/03/20 03:19:59;;;;;;;21.40;16.15;;;;;;;;;;4973711;28;20074;-75
2022/03/20 03:22:27;;;;;;;19.95;14.25;;;;;;;;;;4987675;28;20042;-77
2022/03/20 03:24:55;;;;;;;21.13;16.30;;;;;;;;;;5002756;28;20475;-75
2022/03/20 03:27:23;;;;;;;19.35;15.77;;;;;;;;;;4979958;28;20399;-76
2022/03/20 03:29:50;;;;;;;23.40;16.75;;;;;;;;;;4988914;28;20081;-75
2022/03/20 03:32:17;;;;;;;20.55;15.25;;;;;;;;;;4977893;28;20057;-78
2022/03/20 03:37:32;;;;;;;20.88;15.60;;;;;;;;;;4975132;28;20046;-76
2022/03/20 03:40:00;;;;;;;18.25;14.85;;;;;;;;;;4983739;28;20389;-75
2022/03/20 03:42:30;;;;;;;21.27;16.42;;;;;;;;;;4985604;28;20046;-76
2022/03/20 03:44:58;;;;;;;22.65;15.50;;;;;;;;;;5001673;28;20133;-76
2022/03/20 03:47:26;;;;;;;24.13;18.50;;;;;;;;;;4985222;28;20379;-76
2022/03/20 03:49:53;;;;;;;23.25;17.88;;;;;;;;;;4986987;28;20457;-76
2022/03/20 03:52:21;;;;;;;20.60;15.80;;;;;;;;;;4988885;28;20076;-76
2022/03/20 03:54:48;;;;;;;24.15;17.20;;;;;;;;;;4989381;28;20054;-76
2022/03/20 03:57:19;;;;;;;22.52;16.40;;;;;;;;;;4986266;28;20042;-76
2022/03/20 03:59:47;;;;;;;19.77;14.88;;;;;;;;;;4973099;28;20043;-76
2022/03/20 04:02:14;;;;;;;20.13;15.40;;;;;;;;;;5000117;23;20050;-74
2022/03/20 04:04:42;;;;;;;18.25;13.68;;;;;;;;;;5022166;28;20420;-74
2022/03/20 04:07:10;;;;;;;20.63;16.63;;;;;;;;;;5013197;28;20045;-74
2022/03/20 04:09:37;;;;;;;19.42;14.98;;;;;;;;;;5012608;28;20409;-74
2022/03/20 04:12:05;;;;;;;23.08;16.73;;;;;;;;;;5012833;28;20072;-74
2022/03/20 04:14:33;;;;;;;21.00;16.25;;;;;;;;;;5012368;28;20046;-74
2022/03/20 04:17:00;;;;;;;22.95;17.55;;;;;;;;;;5010070;28;20049;-74
2022/03/20 04:19:28;;;;;;;18.67;14.85;;;;;;;;;;5009209;28;20084;-74
2022/03/20 04:21:55;;;;;;;20.45;16.02;;;;;;;;;;4998336;28;20073;-75
2022/03/20 04:24:23;;;;;;;22.17;16.20;;;;;;;;;;5004644;28;20523;-75
2022/03/20 04:26:50;;;;;;;21.85;16.30;;;;;;;;;;5011752;28;20073;-75
2022/03/20 04:29:20;;;;;;;21.85;15.82;;;;;;;;;;5007196;28;20050;-75
2022/03/20 04:31:48;;;;;;;20.00;15.00;;;;;;;;;;5005279;28;20054;-74
2022/03/20 04:34:16;;;;;;;21.27;15.32;;;;;;;;;;5007790;28;20061;-75
2022/03/20 04:36:44;;;;;;;18.77;15.02;;;;;;;;;;5012216;28;20405;-74
2022/03/20 04:39:11;;;;;;;16.02;13.00;;;;;;;;;;5011105;28;20046;-75
2022/03/20 04:41:38;;;;;;;18.75;14.52;;;;;;;;;;5005617;28;20441;-74
2022/03/20 04:44:07;;;;;;;18.00;14.55;;;;;;;;;;5010931;28;20052;-74
2022/03/20 04:46:35;;;;;;;20.27;14.73;;;;;;;;;;5011430;28;20042;-75
2022/03/20 05:00:07;;;;;;;20.10;14.85;;;;;;;;;;5004577;28;20506;-74
2022/03/20 05:02:34;;;;;;;17.70;12.60;;;;;;;;;;4998409;28;20041;-75
2022/03/20 05:05:03;;;;;;;16.33;12.90;;;;;;;;;;4996665;28;20141;-75
2022/03/20 05:07:30;;;;;;;20.73;14.15;;;;;;;;;;4995203;28;20077;-75
2022/03/20 05:15:36;;;;;;;18.85;13.45;;;;;;;;;;5005204;28;20054;-74
2022/03/20 05:18:07;;;;;;;21.02;14.15;;;;;;;;;;5012866;28;20364;-75
2022/03/20 05:20:35;;;;;;;20.75;15.02;;;;;;;;;;5019197;28;20030;-75
2022/03/20 05:23:02;;;;;;;16.73;13.68;;;;;;;;;;5011200;28;20130;-75
2022/03/20 05:25:30;;;;;;;17.92;14.00;;;;;;;;;;5009123;28;20045;-74
2022/03/20 05:27:58;;;;;;;14.40;11.13;;;;;;;;;;5011317;28;20049;-75
2022/03/20 05:30:25;;;;;;;20.00;13.77;;;;;;;;;;5011669;28;20084;-75
2022/03/20 05:32:53;;;;;;;19.23;14.68;;;;;;;;;;5015370;28;20050;-75
2022/03/20 05:35:20;;;;;;;16.90;13.13;;;;;;;;;;5014003;28;20074;-74
2022/03/20 05:37:48;;;;;;;18.90;13.40;;;;;;;;;;5013159;28;20056;-76
2022/03/20 05:40:15;;;;;;;18.85;14.18;;;;;;;;;;5012157;28;20128;-75
2022/03/20 05:42:43;;;;;;;17.02;13.40;;;;;;;;;;5011186;28;20038;-74
2022/03/20 05:45:11;;;;;;;17.40;15.13;;;;;;;;;;5013099;28;20453;-75
2022/03/20 05:47:40;;;;;;;17.27;13.82;;;;;;;;;;5011888;28;20052;-74
2022/03/20 05:50:08;;;;;;;20.38;15.10;;;;;;;;;;4997815;28;20160;-75
2022/03/20 05:52:36;;;;;;;18.02;14.13;;;;;;;;;;5013502;28;20056;-74
2022/03/20 05:55:04;;;;;;;19.25;13.40;;;;;;;;;;5013423;28;20441;-75
2022/03/20 06:00:25;;;;;;;16.70;13.52;;;;;;;;;;5012978;28;20042;-75
2022/03/20 06:02:52;;;;;;;14.00;12.32;;;;;;;;;;5013973;28;20042;-74
2022/03/20 06:05:20;;;;;;;15.88;12.75;;;;;;;;;;5012606;28;20506;-75
2022/03/20 06:07:49;;;;;;;16.67;13.88;;;;;;;;;;5014715;28;20050;-75
2022/03/20 06:10:20;;;;;;;16.23;13.10;;;;;;;;;;5014589;28;20038;-75
2022/03/20 06:12:47;;;;;;;14.50;10.90;;;;;;;;;;5010935;28;20049;-75
2022/03/20 06:15:15;;;;;;;15.75;11.75;;;;;;;;;;5004074;28;20525;-74
2022/03/20 06:17:46;;;;;;;15.93;12.93;;;;;;;;;;5009464;28;20475;-75
2022/03/20 06:20:16;;;;;;;16.33;11.85;;;;;;;;;;5011844;28;20132;-75
2022/03/20 06:22:47;;;;;;;16.27;13.18;;;;;;;;;;5003487;28;20379;-74
2022/03/20 06:25:15;;;;;;;14.35;11.98;;;;;;;;;;5012805;28;20045;-75
2022/03/20 06:27:48;;;;;;;16.55;11.80;;;;;;;;;;5013874;28;20049;-75
2022/03/20 06:30:16;;;;;;;15.25;11.30;;;;;;;;;;5013343;28;20065;-75
2022/03/20 06:32:44;;;;;;;12.32;9.68;;;;;;;;;;5010172;28;20054;-75
2022/03/20 06:35:12;;;;;;;15.80;12.15;;;;;;;;;;5008568;28;20041;-74
2022/03/20 06:37:40;;;;;;;15.70;12.18;;;;;;;;;;5009933;28;20038;-75
2022/03/20 06:40:08;;;;;;;12.88;11.07;;;;;;;;;;5001666;28;20026;-75
2022/03/20 06:42:36;;;;;;;15.13;12.25;;;;;;;;;;5014351;28;20041;-75
2022/03/20 06:45:04;;;;;;;14.90;12.27;;;;;;;;;;5008048;28;20035;-75
2022/03/20 06:47:32;;;;;;;15.00;12.40;;;;;;;;;;5013228;28;20050;-75
2022/03/20 06:50:00;;;;;;;17.00;12.45;;;;;;;;;;5011765;28;20442;-75
2022/03/20 06:52:31;;;;;;;11.70;9.57;;;;;;;;;;5009568;28;20637;-74
2022/03/20 06:54:59;;;;;;;14.73;12.45;;;;;;;;;;5010078;28;20141;-74
2022/03/20 06:57:27;;;;;;;15.25;11.65;;;;;;;;;;5006331;28;20045;-74
2022/03/20 06:59:59;;;;;;;12.75;10.90;;;;;;;;;;5008998;28;20068;-74
2022/03/20 07:02:28;;;;;;;13.95;11.10;;;;;;;;;;5005252;28;20041;-74
2022/03/20 07:04:56;;;;;;;14.90;11.70;;;;;;;;;;5011609;28;20056;-74
2022/03/20 07:07:24;;;;;;;16.45;12.00;;;;;;;;;;5008538;28;20050;-74
2022/03/20 07:09:51;;;;;;;16.33;12.32;;;;;;;;;;4998625;28;20141;-74
2022/03/20 07:12:19;;;;;;;12.82;10.90;;;;;;;;;;5001324;28;20125;-74
2022/03/20 07:14:46;;;;;;;14.63;12.25;;;;;;;;;;5005614;28;20622;-74
2022/03/20 07:17:22;;;;;;;15.60;11.93;;;;;;;;;;4992139;28;20048;-75
2022/03/20 07:19:51;;;;;;;15.15;12.75;;;;;;;;;;4994896;28;20041;-75
2022/03/20 07:22:19;;;;;;;14.07;11.77;;;;;;;;;;5004901;28;20042;-75
2022/03/20 07:24:48;;;;;;;14.50;11.95;;;;;;;;;;5007700;28;20389;-75
2022/03/20 07:30:07;;;;;;;13.85;10.50;;;;;;;;;;5008818;28;20042;-75
2022/03/20 07:32:36;;;;;;;13.73;10.80;;;;;;;;;;5004424;28;20087;-75
2022/03/20 07:35:03;;;;;;;15.18;12.13;;;;;;;;;;5006827;28;20107;-75
2022/03/20 07:37:31;;;;;;;14.82;11.52;;;;;;;;;;5007870;28;20121;-75
2022/03/20 07:40:04;;;;;;;15.98;11.60;;;;;;;;;;5009036;28;20528;-75
2022/03/20 07:42:32;;;;;;;15.40;11.48;;;;;;;;;;5003587;28;20301;-75
2022/03/20 07:45:03;;;;;;;14.75;11.30;;;;;;;;;;4987276;28;20407;-76
2022/03/20 07:47:30;;;;;;;16.45;12.85;;;;;;;;;;5001612;28;20096;-74
2022/03/20 07:50:01;;;;;;;15.25;11.48;;;;;;;;;;5001817;28;20425;-74
2022/03/20 07:52:28;;;;;;;12.88;11.45;;;;;;;;;;5004428;28;20048;-74
2022/03/20 07:54:56;;;;;;;12.95;11.52;;;;;;;;;;5010134;28;20405;-75
2022/03/20 07:57:23;;;;;;;16.23;11.30;;;;;;;;;;5008279;28;20052;-74
2022/03/20 07:59:50;;;;;;;9.77;7.88;;;;;;;;;;5009293;28;20042;-75
2022/03/20 08:02:18;;;;;;;13.13;10.48;;;;;;;;;;4997815;28;20042;-74
2022/03/20 08:04:45;;;;;;;12.70;10.57;;;;;;;;;;4986923;28;20176;-75
2022/03/20 08:07:13;;;;;;;18.35;11.85;;;;;;;;;;5019072;28;20050;-75
2022/03/20 08:09:41;;;;;;;13.48;11.55;;;;;;;;;;5006275;28;20096;-75
2022/03/20 08:12:08;;;;;;;16.67;10.60;;;;;;;;;;5001378;28;20037;-75
2022/03/20 08:14:56;;;;;;;11.50;10.30;;;;;;;;;;5003337;28;20038;-74
2022/03/20 08:17:23;;;;;;;13.40;9.98;;;;;;;;;;5007262;28;20053;-74
2022/03/20 08:19:50;;;;;;;11.60;9.40;;;;;;;;;;5005339;28;20050;-74
2022/03/20 08:22:18;;;;;;;12.48;10.43;;;;;;;;;;4994806;28;20540;-75
2022/03/20 08:24:47;;;;;;;13.43;10.13;;;;;;;;;;4988785;28;20046;-75
2022/03/20 08:27:14;;;;;;;11.95;10.75;;;;;;;;;;5004244;28;20132;-75
2022/03/20 08:29:42;;;;;;;16.92;11.05;;;;;;;;;;5005341;28;20050;-75
2022/03/20 08:32:10;;;;;;;11.60;9.32;;;;;;;;;;5008540;28;20052;-74
2022/03/20 08:34:37;;;;;;;13.30;10.70;;;;;;;;;;5005858;28;20379;-73
2022/03/20 08:37:04;;;;;;;11.07;9.30;;;;;;;;;;5006809;28;20041;-75
2022/03/20 08:39:32;;;;;;;14.73;10.40;;;;;;;;;;4994872;28;20042;-74
2022/03/20 08:41:59;;;;;;;11.90;9.50;;;;;;;;;;4996801;28;20053;-75
2022/03/20 08:44:28;;;;;;;11.95;9.65;;;;;;;;;;4992948;28;20066;-75
2022/03/20 08:46:55;;;;;;;10.85;9.10;;;;;;;;;;5003008;28;20033;-75
2022/03/20 08:49:23;;;;;;;12.02;10.18;;;;;;;;;;5005512;28;20509;-75
2022/03/20 08:51:50;;;;;;;12.13;9.23;;;;;;;;;;5007671;28;20038;-74
2022/03/20 08:54:17;;;;;;;10.55;8.18;;;;;;;;;;4999421;28;20046;-75
2022/03/20 08:56:45;;;;;;;14.77;11.18;;;;;;;;;;5005330;28;20406;-74
2022/03/20 08:59:12;;;;;;;11.57;10.23;;;;;;;;;;4992051;28;20054;-75
2022/03/20 09:01:39;;;;;;;11.70;9.82;;;;;;;;;;4996108;28;20502;-74
2022/03/20 09:04:07;;;;;;;12.25;10.52;;;;;;;;;;5004418;28;20041;-73
2022/03/20 09:06:34;;;;;;;11.48;10.30;;;;;;;;;;5001624;28;20038;-75
2022/03/20 09:09:02;;;;;;;13.40;10.05;;;;;;;;;;4988274;28;20491;-75
2022/03/20 09:11:29;;;;;;;11.18;9.90;;;;;;;;;;4996637;28;20061;-73
2022/03/20 09:13:56;;;;;;;11.15;9.98;;;;;;;;;;4996655;28;20133;-75
2022/03/20 09:19:10;;;;;;;10.80;9.70;;;;;;;;;;5005326;28;20141;-74
2022/03/20 09:21:38;;;;;;;9.45;8.45;;;;;;;;;;5005489;28;20055;-73
2022/03/20 09:24:06;;;;;;;10.63;9.57;;;;;;;;;;5002157;28;20038;-74
2022/03/20 09:26:34;;;;;;;10.18;9.18;;;;;;;;;;5001585;28;20104;-73
2022/03/20 09:29:01;;;;;;;11.45;10.35;;;;;;;;;;4997912;28;20038;-75
2022/03/20 09:31:31;;;;;;;12.50;8.52;;;;;;;;;;5004286;28;20137;-74
2022/03/20 09:34:01;;;;;;;12.95;10.13;;;;;;;;;;5006266;28;20096;-75
2022/03/20 09:36:29;;;;;;;10.57;9.57;;;;;;;;;;5002339;28;20038;-74
2022/03/20 09:38:56;;;;;;;9.55;8.63;;;;;;;;;;5001702;28;20117;-75
2022/03/20 09:41:32;;;;;;;10.60;9.48;;;;;;;;;;5009780;28;20042;-75
2022/03/20 09:44:03;;;;;;;10.63;9.55;;;;;;;;;;5009725;28;20533;-75
2022/03/20 09:46:31;;;;;;;10.98;9.45;;;;;;;;;;5004371;28;20052;-76
2022/03/20 09:49:01;;;;;;;11.50;10.40;;;;;;;;;;4998940;28;20052;-74
2022/03/20 09:51:28;;;;;;;10.98;9.93;;;;;;;;;;5008665;28;20478;-73
2022/03/20 09:53:56;;;;;;;10.23;9.23;;;;;;;;;;5008167;28;20472;-73
2022/03/20 09:56:23;;;;;;;10.80;9.05;;;;;;;;;;5004838;28;20069;-75
2022/03/20 09:58:51;;;;;;;9.95;8.57;;;;;;;;;;5007842;28;20041;-74
2022/03/20 10:01:18;;;;;;;9.60;8.65;;;;;;;;;;5007306;28;20050;-74
2022/03/20 10:03:46;;;;;;;10.70;9.57;;;;;;;;;;5012563;23;20120;-77
2022/03/20 10:06:16;;;;;;;11.57;10.43;;;;;;;;;;4991421;28;20072;-78
2022/03/20 10:08:59;;;;;;;13.52;10.00;;;;;;;;;;4986899;28;20050;-77
2022/03/20 10:11:27;;;;;;;11.63;10.43;;;;;;;;;;4998329;28;20050;-78
2022/03/20 10:14:14;;;;;;;11.02;9.80;;;;;;;;;;5003643;28;20049;-77
2022/03/20 10:16:48;;;;;;;10.43;9.35;;;;;;;;;;4984290;28;20462;-77
2022/03/20 10:19:25;;;;;;;11.02;9.68;;;;;;;;;;4990078;28;20046;-77
2022/03/20 10:22:03;;;;;;;10.65;9.32;;;;;;;;;;4987128;28;20391;-77
2022/03/20 10:24:31;;;;;;;12.15;10.23;;;;;;;;;;4986094;28;20447;-77
2022/03/20 10:26:59;;;;;;;11.30;9.38;;;;;;;;;;4991036;28;20051;-78
2022/03/20 10:29:27;;;;;;;13.10;10.52;;;;;;;;;;4990022;28;20082;-77
2022/03/20 10:31:56;;;;;;;11.35;9.52;;;;;;;;;;4990148;28;20354;-77
2022/03/20 10:34:23;;;;;;;11.02;9.57;;;;;;;;;;4989698;28;20056;-77
2022/03/20 10:36:51;;;;;;;11.07;9.77;;;;;;;;;;4986982;28;20137;-78
2022/03/20 10:39:20;;;;;;;11.18;8.68;;;;;;;;;;4973537;28;20074;-78
2022/03/20 10:41:48;;;;;;;10.63;9.52;;;;;;;;;;4998313;28;20121;-77
2022/03/20 10:44:34;;;;;;;12.02;9.88;;;;;;;;;;5003797;28;20046;-77
2022/03/20 10:47:12;;;;;;;9.18;7.88;;;;;;;;;;4992914;28;20046;-77
2022/03/20 10:49:59;;;;;;;11.18;9.55;;;;;;;;;;4989088;28;20576;-78
2022/03/20 10:52:29;;;;;;;10.45;9.43;;;;;;;;;;5005719;28;20052;-78
2022/03/20 10:54:57;;;;;;;11.18;9.27;;;;;;;;;;5008638;28;20103;-78
2022/03/20 10:57:34;;;;;;;10.43;9.18;;;;;;;;;;5004892;28;20153;-78
2022/03/20 11:00:05;;;;;;;10.32;7.50;;;;;;;;;;4991165;28;20035;-77
2022/03/20 11:02:35;;;;;;;9.95;8.60;;;;;;;;;;5010398;28;20037;-77
2022/03/20 11:05:03;;;;;;;10.85;9.38;;;;;;;;;;4996279;28;20047;-78
2022/03/20 11:07:30;;;;;;;10.20;7.90;;;;;;;;;;4978457;28;20060;-77
2022/03/20 11:10:00;;;;;;;10.15;8.45;;;;;;;;;;4995887;28;20053;-77
2022/03/20 11:12:29;;;;;;;11.50;8.45;;;;;;;;;;4993050;28;20042;-78
2022/03/20 11:14:58;;;;;;;10.65;9.20;;;;;;;;;;4998921;28;20053;-78
2022/03/20 11:17:27;;;;;;;11.38;8.80;;;;;;;;;;4987465;28;20494;-77
2022/03/20 11:19:57;;;;;;;10.33;8.67;;;;;;;;;;4987819;28;20104;-77
2022/03/20 11:22:26;;;;;;;9.98;8.57;;;;;;;;;;4998016;28;20050;-78
2022/03/20 11:24:55;;;;;;;10.43;8.48;;;;;;;;;;4995320;28;20049;-78
2022/03/20 11:27:26;;;;;;;8.10;7.28;;;;;;;;;;4984727;28;20053;-77
2022/03/20 11:30:05;;;;;;;10.35;8.85;;;;;;;;;;4988282;28;20061;-77
2022/03/20 11:32:33;;;;;;;13.38;9.38;;;;;;;;;;4985797;28;20137;-78
2022/03/20 11:35:03;;;;;;;10.73;8.82;;;;;;;;;;4987334;28;20042;-77
2022/03/20 11:37:42;;;;;;;9.25;7.45;;;;;;;;;;5006254;28;20050;-77
2022/03/20 11:40:11;;;;;;;10.20;7.85;;;;;;;;;;5008206;28;20046;-77
2022/03/20 11:42:39;;;;;;;8.18;6.82;;;;;;;;;;5009106;28;20065;-77
2022/03/20 11:45:10;;;;;;;14.30;9.07;;;;;;;;;;5006914;28;20049;-79
2022/03/20 11:47:41;;;;;;;9.65;8.25;;;;;;;;;;4987470;28;20046;-78
2022/03/20 11:50:13;;;;;;;8.77;7.95;;;;;;;;;;4984069;28;20125;-78
2022/03/20 11:52:58;;;;;;;8.27;7.45;;;;;;;;;;4987794;28;20489;-78
2022/03/20 11:55:36;;;;;;;9.10;7.78;;;;;;;;;;4985614;28;20569;-78
2022/03/20 11:58:05;;;;;;;10.38;7.18;;;;;;;;;;4986117;28;20517;-77
2022/03/20 12:00:34;;;;;;;9.02;8.02;;;;;;;;;;5003276;28;20696;-78
2022/03/20 12:03:22;;;;;;;9.30;7.97;;;;;;;;;;4987961;28;20043;-79
2022/03/20 12:06:08;;;;;;;11.43;8.18;;;;;;;;;;4988328;28;20048;-77
2022/03/20 12:08:42;;;;;;;10.85;8.98;;;;;;;;;;5001429;28;20097;-79
2022/03/20 12:11:32;;;;;;;9.48;7.03;;;;;;;;;;5002731;28;20207;-77
2022/03/20 12:14:06;;;;;;;8.23;7.43;;;;;;;;;;4987609;28;20057;-77
2022/03/20 12:16:45;;;;;;;9.30;8.02;;;;;;;;;;4996619;28;20048;-78
2022/03/20 12:19:14;;;;;;;10.15;8.70;;;;;;;;;;5002223;28;20038;-77
2022/03/20 12:21:59;;;;;;;9.65;8.65;;;;;;;;;;5008255;28;20053;-78
2022/03/20 12:24:35;;;;;;;9.95;7.80;;;;;;;;;;4990672;28;20046;-77
2022/03/20 12:27:19;;;;;;;9.23;7.95;;;;;;;;;;5002909;28;20168;-77
2022/03/20 12:29:50;;;;;;;8.60;7.70;;;;;;;;;;5005982;28;20133;-78
2022/03/20 12:32:23;;;;;;;11.52;8.98;;;;;;;;;;5003818;28;20049;-78
2022/03/20 12:34:57;;;;;;;8.98;8.07;;;;;;;;;;4988222;28;20046;-78
2022/03/20 12:37:37;;;;;;;11.02;8.32;;;;;;;;;;4999791;28;20049;-78
2022/03/20 12:40:08;;;;;;;8.40;7.50;;;;;;;;;;5005719;28;20034;-78
2022/03/20 12:43:03;;;;;;;10.73;8.00;;;;;;;;;;4987402;28;20057;-78
2022/03/20 12:45:31;;;;;;;10.18;7.97;;;;;;;;;;4989621;28;20042;-76
2022/03/20 12:48:00;;;;;;;8.93;7.53;;;;;;;;;;4986386;28;20042;-77
2022/03/20 12:50:28;;;;;;;8.65;7.18;;;;;;;;;;4987512;28;20051;-78
2022/03/20 12:53:04;;;;;;;9.20;7.65;;;;;;;;;;5000563;28;20057;-78
2022/03/20 12:55:31;;;;;;;8.50;7.63;;;;;;;;;;4985499;28;20049;-78
2022/03/20 12:57:59;;;;;;;11.07;7.57;;;;;;;;;;4970846;28;20134;-79
2022/03/20 13:00:33;;;;;;;10.02;7.30;;;;;;;;;;4970014;28;20046;-78
2022/03/20 13:03:08;;;;;;;11.55;8.40;;;;;;;;;;4975125;28;20149;-77
2022/03/20 13:05:47;;;;;;;8.82;7.93;;;;;;;;;;4998543;28;20077;-77
2022/03/20 13:08:22;;;;;;;8.50;7.60;;;;;;;;;;5008478;28;20456;-77
2022/03/20 13:10:50;;;;;;;10.30;7.18;;;;;;;;;;5005594;28;20476;-75
2022/03/20 13:13:20;;;;;;;8.38;7.55;;;;;;;;;;5006065;28;20137;-77
2022/03/20 13:15:51;;;;;;;8.77;7.63;;;;;;;;;;4986732;28;20049;-76
2022/03/20 13:18:23;;;;;;;7.88;7.03;;;;;;;;;;5005990;28;20042;-78
2022/03/20 13:20:51;;;;;;;9.05;7.25;;;;;;;;;;4983889;28;20398;-78
2022/03/20 13:23:20;;;;;;;9.73;8.23;;;;;;;;;;4949262;28;20550;-78
2022/03/20 13:25:49;;;;;;;8.90;7.30;;;;;;;;;;4985059;28;20835;-78
2022/03/20 13:28:29;;;;;;;8.77;7.30;;;;;;;;;;4985282;28;20417;-79
2022/03/20 13:30:58;;;;;;;9.68;7.60;;;;;;;;;;4984883;28;20046;-78
2022/03/20 13:33:29;;;;;;;7.72;6.93;;;;;;;;;;4985291;28;20058;-78
2022/03/20 13:35:57;;;;;;;7.80;6.88;;;;;;;;;;4969772;28;20200;-77
2022/03/20 13:38:31;;;;;;;7.90;6.53;;;;;;;;;;4985597;28;20050;-78
2022/03/20 13:41:16;;;;;;;7.47;6.50;;;;;;;;;;4994246;28;20352;-79
2022/03/20 13:43:44;;;;;;;8.05;7.25;;;;;;;;;;5005588;28;20488;-78
2022/03/20 13:46:17;;;;;;;9.68;7.38;;;;;;;;;;5005189;28;20249;-77
2022/03/20 13:48:46;;;;;;;6.70;6.00;;;;;;;;;;4995191;28;20495;-78
2022/03/20 13:51:14;;;;;;;9.32;7.30;;;;;;;;;;4975848;28;20035;-79
2022/03/20 13:53:42;;;;;;;8.07;7.05;;;;;;;;;;4989620;28;20117;-77
2022/03/20 13:56:19;;;;;;;8.43;7.22;;;;;;;;;;4995876;28;20038;-79
2022/03/20 13:59:06;;;;;;;7.32;6.63;;;;;;;;;;4992344;28;20035;-77
2022/03/20 14:01:57;;;;;;;7.85;6.75;;;;;;;;;;5017261;28;20120;-78
2022/03/20 14:04:25;;;;;;;8.00;7.10;;;;;;;;;;4988547;28;20054;-79
2022/03/20 14:06:56;;;;;;;8.90;6.47;;;;;;;;;;5005727;28;20191;-79
2022/03/20 14:09:34;;;;;;;9.75;7.60;;;;;;;;;;5001518;28;20132;-78
2022/03/20 14:12:20;;;;;;;11.13;7.45;;;;;;;;;;4997591;28;20088;-78
2022/03/20 14:14:48;;;;;;;8.85;6.65;;;;;;;;;;4996542;28;20038;-77
2022/03/20 14:17:16;;;;;;;8.50;7.60;;;;;;;;;;4988743;28;20292;-77
2022/03/20 14:19:47;;;;;;;8.88;7.15;;;;;;;;;;4989397;28;20070;-76
2022/03/20 14:22:18;;;;;;;7.60;6.90;;;;;;;;;;5004694;28;20042;-78
2022/03/20 14:24:57;;;;;;;5.83;5.23;;;;;;;;;;4985774;28;20046;-77
2022/03/20 14:27:28;;;;;;;8.07;6.93;;;;;;;;;;4985520;28;20046;-78
2022/03/20 14:41:28;;;;;;;6.95;6.25;;;;;;;;;;5005378;28;20069;-79
2022/03/20 14:44:03;;;;;;;8.25;7.32;;;;;;;;;;4995532;28;20054;-76
2022/03/20 14:46:30;;;;;;;9.02;7.63;;;;;;;;;;5000412;28;20049;-79
2022/03/20 14:48:58;;;;;;;6.85;6.25;;;;;;;;;;5009562;28;20046;-78
2022/03/20 14:51:25;;;;;;;7.45;6.68;;;;;;;;;;4994735;28;20558;-79
2022/03/20 14:53:53;;;;;;;8.02;6.15;;;;;;;;;;4983386;28;20045;-78
2022/03/20 14:56:20;;;;;;;8.20;7.38;;;;;;;;;;4993407;28;20048;-78
2022/03/20 14:58:48;;;;;;;9.07;7.30;;;;;;;;;;4984715;28;20102;-78
2022/03/20 15:01:19;;;;;;;8.32;7.50;;;;;;;;;;4980756;28;20038;-78
2022/03/20 15:03:47;;;;;;;7.72;6.95;;;;;;;;;;4982866;28;20527;-78
2022/03/20 15:06:15;;;;;;;7.65;6.95;;;;;;;;;;4978755;28;20306;-78
2022/03/20 15:11:31;;;;;;;9.00;7.22;;;;;;;;;;4989357;28;20491;-79
2022/03/20 15:14:00;;;;;;;7.68;6.97;;;;;;;;;;4984720;28;20043;-78
2022/03/20 15:16:28;;;;;;;7.72;6.95;;;;;;;;;;5001318;28;20050;-79
2022/03/20 15:18:59;;;;;;;7.43;6.68;;;;;;;;;;4994286;28;20042;-78
2022/03/20 15:21:27;;;;;;;10.23;7.45;;;;;;;;;;4972466;28;20435;-79
2022/03/20 15:23:55;;;;;;;9.02;7.18;;;;;;;;;;4990928;28;20066;-78
2022/03/20 15:26:22;;;;;;;8.85;7.30;;;;;;;;;;4965761;28;20054;-79
2022/03/20 15:28:50;;;;;;;7.10;6.50;;;;;;;;;;4979449;28;20050;-78